Terminal Aerodrome Forecast
Issued by NWS

Home | Current Version | Previous Version | Text Only | Print | Product List | Glossary On
Versions: 1 2 3 4 5 6 7 8 9 10 11 12 13
833
FTUS43 KOAX 052320
TAFSNY
TAF
KSNY 052320Z 0600/0624 17011KT P6SM SCT250
     FM060800 18009KT P6SM SCT250 WS020/19040KT
     FM061600 15007KT P6SM SCT250
     FM062100 14011KT P6SM BKN250=

USA.gov is the U.S. government's official web portal to all federal, state and local government web resources and services.